Time;durP1;ratioP1;P1;durP2;ratioP2;P2;SDS_P1;SDS_P2;PMS_P1;PMS_P2;Temp;Humidity;BMP_temperature;BMP_pressure;BME280_temperature;BME280_humidity;BME280_pressure;Samples;Min_cycle;Max_cycle;Signal;HPM_P1;HPM_P2
2023/12/09 00:03:39;;;;;;;;;;;;;;;8.17;100.00;98292.41;4844534;29;20367;-96
2023/12/09 00:06:22;;;;;;;;;;;;;;;8.16;100.00;98282.84;4843936;29;19924;-95
2023/12/09 00:09:01;;;;;;;;;;;;;;;8.11;100.00;98275.50;4846918;29;20359;-95
2023/12/09 00:11:47;;;;;;;;;;;;;;;8.13;100.00;98273.50;4839752;29;20317;-92
2023/12/09 00:19:07;;;;;;;;;;;;;;;8.18;100.00;98244.84;4776971;29;19918;-96
2023/12/09 00:22:12;;;;;;;;;;;;;;;8.21;100.00;98250.72;4756045;29;19980;-94
2023/12/09 00:24:48;;;;;;;;;;;;;;;8.22;100.00;98250.53;4853058;29;19934;-96
2023/12/09 00:27:18;;;;;;;;;;;;;;;8.22;100.00;98242.66;4861574;29;20374;-94
2023/12/09 00:29:46;;;;;;;;;;;;;;;8.22;100.00;98237.38;4852316;29;19950;-96
2023/12/09 00:32:15;;;;;;;;;;;;;;;8.22;100.00;98228.69;4849817;29;19967;-94
2023/12/09 00:34:44;;;;;;;;;;;;;;;8.23;100.00;98219.78;4880176;29;19916;-96
2023/12/09 00:37:10;;;;;;;;;;;;;;;8.24;100.00;98216.13;4887458;29;20036;-95
2023/12/09 00:39:45;;;;;;;;;;;;;;;8.25;100.00;98204.63;4887373;29;19916;-95
2023/12/09 00:42:11;;;;;;;;;;;;;;;8.20;100.00;98207.81;4882136;29;19919;-94
2023/12/09 00:44:45;;;;;;;;;;;;;;;8.19;100.00;98214.06;4881241;29;20304;-95
2023/12/09 00:47:20;;;;;;;;;;;;;;;8.18;100.00;98208.00;4847397;29;20022;-93
2023/12/09 00:49:46;;;;;;;;;;;;;;;8.19;100.00;98208.81;4875239;29;20002;-94
2023/12/09 00:52:17;;;;;;;;;;;;;;;8.19;100.00;98208.81;4899965;29;20032;-95
2023/12/09 00:54:51;;;;;;;;;;;;;;;8.22;100.00;98207.63;4859575;29;19919;-95
2023/12/09 00:57:38;;;;;;;;;;;;;;;8.21;100.00;98201.53;4885804;29;19919;-95
2023/12/09 01:03:27;;;;;;;;;;;;;;;8.21;100.00;98180.50;4889642;29;19930;-96
2023/12/09 01:06:32;;;;;;;;;;;;;;;8.26;100.00;98172.88;4889892;29;20607;-94
2023/12/09 01:09:01;;;;;;;;;;;;;;;8.27;100.00;98152.59;4866434;29;19927;-95
2023/12/09 01:11:49;;;;;;;;;;;;;;;8.30;100.00;98147.78;4870802;29;19927;-95
2023/12/09 01:14:36;;;;;;;;;;;;;;;8.32;100.00;98135.28;4875285;29;19916;-94
2023/12/09 01:17:08;;;;;;;;;;;;;;;8.32;100.00;98122.13;4868956;29;19923;-93
2023/12/09 01:20:03;;;;;;;;;;;;;;;8.36;100.00;98105.94;4863818;29;20327;-93
2023/12/09 01:22:34;;;;;;;;;;;;;;;8.35;100.00;98094.59;4873934;29;19925;-93
2023/12/09 01:25:19;;;;;;;;;;;;;;;;;;;;;
2023/12/09 02:15:06;;;;;;;;;;;;;;;8.81;100.00;97864.22;4813868;29;19915;-94
2023/12/09 02:25:37;;;;;;;;;;;;;;;9.04;100.00;97817.47;4883336;29;19927;-95
2023/12/09 02:28:25;;;;;;;;;;;;;;;9.11;100.00;97817.50;4860236;29;19956;-95
2023/12/09 02:38:44;;;;;;;;;;;;;;;9.31;100.00;97772.72;4878738;29;19931;-96
2023/12/09 02:41:11;;;;;;;;;;;;;;;9.34;100.00;97732.75;4757112;29;19925;-94
2023/12/09 02:43:41;;;;;;;;;;;;;;;9.38;100.00;97714.72;4777600;29;19921;-94
2023/12/09 02:46:11;;;;;;;;;;;;;;;9.42;100.00;97715.94;4784209;29;19921;-94
2023/12/09 02:48:37;;;;;;;;;;;;;;;9.44;100.00;97724.44;4771376;29;19942;-92
2023/12/09 02:55:33;;;;;;;;;;;;;;;9.54;100.00;97708.19;4725525;30;20080;-95
2023/12/09 02:57:59;;;;;;;;;;;;;;;9.60;100.00;97698.66;4694509;29;20022;-95
2023/12/09 03:00:27;;;;;;;;;;;;;;;9.65;100.00;97696.22;4779338;29;19921;-96
2023/12/09 03:07:22;;;;;;;;;;;;;;;9.67;100.00;97641.41;4764827;29;20015;-95
2023/12/09 03:09:57;;;;;;;;;;;;;;;9.70;100.00;97638.38;4802939;29;19917;-95
2023/12/09 03:12:32;;;;;;;;;;;;;;;9.72;100.00;97615.25;4729892;30;19918;-96
2023/12/09 03:15:05;;;;;;;;;;;;;;;9.73;100.00;97587.84;4785245;30;19960;-95
2023/12/09 03:17:38;;;;;;;;;;;;;;;9.76;100.00;97570.81;4792441;29;20373;-96
2023/12/09 03:24:18;;;;;;;;;;;;;;;9.77;100.00;97559.22;4876964;29;20022;-96
2023/12/09 03:34:27;;;;;;;;;;;;;;;9.78;100.00;97532.63;4883181;29;19923;-96
2023/12/09 03:37:22;;;;;;;;;;;;;;;9.77;100.00;97538.94;4878629;29;20006;-95
2023/12/09 03:40:31;;;;;;;;;;;;;;;9.77;100.00;97535.47;4877874;29;19922;-96
2023/12/09 03:43:08;;;;;;;;;;;;;;;9.75;100.00;97527.78;4882967;29;19971;-94
2023/12/09 03:45:46;;;;;;;;;;;;;;;9.77;100.00;97524.94;4885845;29;19919;-96
2023/12/09 03:48:52;;;;;;;;;;;;;;;9.81;100.00;97507.66;4876834;29;19978;-96
2023/12/09 03:51:32;;;;;;;;;;;;;;;9.89;100.00;97477.59;4859537;29;19920;-96
2023/12/09 03:53:57;;;;;;;;;;;;;;;9.90;100.00;97489.75;4861352;29;19986;-94
2023/12/09 03:56:25;;;;;;;;;;;;;;;9.88;100.00;97486.50;4872284;29;19966;-94
2023/12/09 04:06:28;;;;;;;;;;;;;;;9.99;100.00;97469.19;4895601;29;20109;-96
2023/12/09 04:08:55;;;;;;;;;;;;;;;9.97;100.00;97464.13;4866484;29;19931;-96
2023/12/09 04:11:21;;;;;;;;;;;;;;;10.02;100.00;97471.38;4879360;29;19919;-96
2023/12/09 04:13:59;;;;;;;;;;;;;;;10.04;100.00;97456.16;4886765;29;19974;-95
2023/12/09 04:16:44;;;;;;;;;;;;;;;10.08;100.00;97462.59;4851669;29;19915;-96
2023/12/09 04:26:46;;;;;;;;;;;;;;;10.16;100.00;97437.81;4835255;29;19952;-96
2023/12/09 04:33:30;;;;;;;;;;;;;;;;;;;;;
2023/12/09 04:39:51;;;;;;;;;;;;;;;10.47;100.00;97425.56;4840822;29;19970;-94
2023/12/09 04:42:23;;;;;;;;;;;;;;;10.50;100.00;97416.38;4849019;29;19947;-96
2023/12/09 04:45:00;;;;;;;;;;;;;;;10.52;100.00;97412.53;4847114;29;19920;-96
2023/12/09 04:47:27;;;;;;;;;;;;;;;10.55;100.00;97411.25;4846542;29;19975;-96
2023/12/09 04:49:55;;;;;;;;;;;;;;;10.58;100.00;97402.09;4835373;29;19923;-96
2023/12/09 04:52:26;;;;;;;;;;;;;;;10.58;100.00;97402.91;4839814;29;20019;-96
2023/12/09 04:54:55;;;;;;;;;;;;;;;10.61;100.00;97401.63;4833037;29;19920;-96
2023/12/09 04:57:27;;;;;;;;;;;;;;;10.62;100.00;97396.13;4837136;29;19916;-96
2023/12/09 04:59:53;;;;;;;;;;;;;;;10.66;100.00;97381.47;4842126;29;19981;-96
2023/12/09 05:02:22;;;;;;;;;;;;;;;10.69;100.00;97382.06;4836015;29;19916;-96
2023/12/09 05:04:52;;;;;;;;;;;;;;;10.70;100.00;97386.31;4863478;29;19920;-96
2023/12/09 05:07:26;;;;;;;;;;;;;;;10.72;100.00;97377.13;4885097;29;19916;-95
2023/12/09 05:10:01;;;;;;;;;;;;;;;10.73;100.00;97372.66;4855946;29;19919;-96
2023/12/09 05:12:35;;;;;;;;;;;;;;;10.75;100.00;97381.19;4874891;29;19920;-96
2023/12/09 05:15:19;;;;;;;;;;;;;;;10.77;100.00;97377.28;4869877;29;19920;-96
2023/12/09 05:17:45;;;;;;;;;;;;;;;10.79;100.00;97383.16;4865619;29;19938;-96
2023/12/09 05:20:11;;;;;;;;;;;;;;;10.81;100.00;97376.84;4856896;29;20414;-96
2023/12/09 05:22:45;;;;;;;;;;;;;;;10.80;100.00;97370.75;4868464;29;19916;-96
2023/12/09 05:25:39;;;;;;;;;;;;;;;10.82;100.00;97373.97;4870970;29;19974;-96
2023/12/09 05:28:37;;;;;;;;;;;;;;;10.85;100.00;97378.00;4885618;29;19919;-96
2023/12/09 05:31:08;;;;;;;;;;;;;;;10.88;100.00;97380.19;4886378;29;19900;-96
2023/12/09 05:33:34;;;;;;;;;;;;;;;10.89;100.00;97379.97;4885646;29;19915;-96
2023/12/09 05:36:06;;;;;;;;;;;;;;;10.91;100.00;97383.22;4891575;29;19972;-95
2023/12/09 05:38:31;;;;;;;;;;;;;;;10.95;100.00;97386.22;4868001;29;19920;-96
2023/12/09 05:40:57;;;;;;;;;;;;;;;10.96;100.00;97384.41;4887673;29;19923;-96
2023/12/09 05:43:23;;;;;;;;;;;;;;;10.99;100.00;97381.31;4866993;29;20374;-95
2023/12/09 05:45:50;;;;;;;;;;;;;;;11.00;100.00;97381.09;4900663;29;20005;-96
2023/12/09 05:48:16;;;;;;;;;;;;;;;11.02;100.00;97386.94;4878558;29;19918;-96
2023/12/09 05:50:45;;;;;;;;;;;;;;;11.03;100.00;97390.41;4876638;29;19923;-96
2023/12/09 05:53:14;;;;;;;;;;;;;;;11.03;100.00;97391.22;4871782;29;19916;-96
2023/12/09 05:55:43;;;;;;;;;;;;;;;11.04;100.00;97395.47;4887836;29;19978;-96
2023/12/09 05:58:09;;;;;;;;;;;;;;;11.06;100.00;97392.59;4875202;29;19922;-96
2023/12/09 06:00:36;;;;;;;;;;;;;;;11.09;100.00;97407.19;4900069;29;19924;-96
2023/12/09 06:03:04;;;;;;;;;;;;;;;11.09;100.00;97405.34;4873736;29;19926;-96
2023/12/09 06:05:58;;;;;;;;;;;;;;;;;;;;;
2023/12/09 06:22:57;;;;;;;;;;;;;;;11.25;100.00;97396.00;4882930;29;19997;-96
2023/12/09 06:34:11;;;;;;;;;;;;;;;11.33;100.00;97412.56;4883302;29;19927;-96
2023/12/09 06:41:11;;;;;;;;;;;;;;;;;;;;;
2023/12/09 07:12:54;;;;;;;;;;;;;;;10.12;100.00;97444.53;4809936;29;19976;-96
2023/12/09 07:19:45;;;;;;;;;;;;;;;;;;;;;
2023/12/09 07:26:34;;;;;;;;;;;;;;;9.94;100.00;97480.38;4829280;29;19928;-96
2023/12/09 07:29:54;;;;;;;;;;;;;;;9.92;100.00;97479.81;4816229;29;19989;-96
2023/12/09 07:33:08;;;;;;;;;;;;;;;9.91;100.00;97480.81;4907467;29;20411;-96
2023/12/09 07:47:16;;;;;;;;;;;;;;;9.80;100.00;97461.19;4898910;29;20274;-96
2023/12/09 07:58:17;;;;;;;;;;;;;;;9.81;100.00;97486.53;4828173;29;20422;-96
2023/12/09 08:06:07;;;;;;;;;;;;;;;9.77;100.00;97491.47;4882355;29;19991;-96
2023/12/09 08:12:52;;;;;;;;;;;;;;;9.78;100.00;97477.25;4857457;29;19922;-96
2023/12/09 08:20:54;;;;;;;;;;;;;;;9.79;100.00;97486.75;4847854;29;19927;-96
2023/12/09 08:30:29;;;;;;;;;;;;;;;;;;;;;
2023/12/09 08:34:12;;;;;;;;;;;;;;;;;;;;;
2023/12/09 08:37:45;;;;;;;;;;;;;;;9.88;100.00;97516.34;4898656;29;19923;-96
2023/12/09 08:48:08;;;;;;;;;;;;;;;;;;;;;
2023/12/09 08:51:58;;;;;;;;;;;;;;;9.83;100.00;97510.06;4903956;29;19927;-96
2023/12/09 09:01:33;;;;;;;;;;;;;;;9.79;100.00;97517.63;4839907;29;19926;-96
2023/12/09 09:07:56;;;;;;;;;;;;;;;9.82;100.00;97522.47;4830645;29;19920;-96
2023/12/09 09:11:04;;;;;;;;;;;;;;;9.77;100.00;97530.22;4856368;29;19922;-96
2023/12/09 09:14:28;;;;;;;;;;;;;;;9.77;100.00;97540.75;4855538;29;20374;-95
2023/12/09 09:20:42;;;;;;;;;;;;;;;9.80;100.00;97535.88;4874067;29;19919;-96
2023/12/09 09:24:10;;;;;;;;;;;;;;;9.83;100.00;97552.28;4888462;29;19925;-96
2023/12/09 09:27:19;;;;;;;;;;;;;;;9.87;100.00;97569.31;4854320;29;19957;-96
2023/12/09 09:30:27;;;;;;;;;;;;;;;9.88;100.00;97553.28;4871009;29;19916;-96
2023/12/09 09:47:50;;;;;;;;;;;;;;;9.87;100.00;97608.91;4886058;29;20017;-96
2023/12/09 09:58:37;;;;;;;;;;;;;;;9.95;100.00;97605.19;4933462;23;19930;-95
2023/12/09 10:01:04;;;;;;;;;;;;;;;10.00;100.00;97608.03;4877827;29;19916;-95
2023/12/09 10:03:30;;;;;;;;;;;;;;;10.01;100.00;97615.72;4892159;23;19963;-94
2023/12/09 10:05:56;;;;;;;;;;;;;;;10.04;100.00;97602.13;4878519;29;19919;-94
2023/12/09 10:08:21;;;;;;;;;;;;;;;10.06;100.00;97612.47;4901323;29;19998;-94
2023/12/09 10:10:47;;;;;;;;;;;;;;;10.07;100.00;97592.13;4904073;29;19968;-95
2023/12/09 10:13:33;;;;;;;;;;;;;;;10.03;100.00;97602.31;4897909;29;19915;-93
2023/12/09 10:15:59;;;;;;;;;;;;;;;10.01;100.00;97607.81;4887180;29;19954;-95
2023/12/09 10:18:25;;;;;;;;;;;;;;;10.03;100.00;97605.75;4885381;29;19946;-94
2023/12/09 10:20:51;;;;;;;;;;;;;;;10.02;100.00;97606.78;4893171;29;20005;-94
2023/12/09 10:23:17;;;;;;;;;;;;;;;9.99;100.00;97615.13;4892534;29;19918;-95
2023/12/09 10:25:47;;;;;;;;;;;;;;;9.96;100.00;97612.91;4886092;29;19926;-95
2023/12/09 10:28:13;;;;;;;;;;;;;;;9.96;100.00;97633.19;4900910;29;19938;-95
2023/12/09 10:30:40;;;;;;;;;;;;;;;9.97;100.00;97640.91;4886186;29;19937;-95
2023/12/09 10:33:05;;;;;;;;;;;;;;;9.98;100.00;97647.81;4887907;29;20053;-94
2023/12/09 10:35:31;;;;;;;;;;;;;;;9.99;100.00;97656.53;4899480;29;20006;-95
2023/12/09 10:38:00;;;;;;;;;;;;;;;10.03;100.00;97634.78;4907999;29;19926;-91
2023/12/09 10:40:26;;;;;;;;;;;;;;;9.99;100.00;97664.44;4902178;29;19914;-95
2023/12/09 10:42:54;;;;;;;;;;;;;;;10.08;100.00;97668.47;4905043;29;20388;-94
2023/12/09 10:45:20;;;;;;;;;;;;;;;10.21;100.00;97690.56;4899207;29;20385;-95
2023/12/09 10:47:46;;;;;;;;;;;;;;;10.24;100.00;97713.91;4904790;29;19922;-94
2023/12/09 10:50:13;;;;;;;;;;;;;;;10.30;100.00;97691.94;4905422;29;19918;-95
2023/12/09 10:52:38;;;;;;;;;;;;;;;10.33;100.00;97690.69;4890190;29;19965;-94
2023/12/09 10:55:04;;;;;;;;;;;;;;;10.40;100.00;97712.59;4901732;29;19914;-93
2023/12/09 10:57:30;;;;;;;;;;;;;;;10.39;100.00;97711.78;4885642;29;19915;-94
2023/12/09 10:59:56;;;;;;;;;;;;;;;10.40;100.00;97744.28;4884842;29;19915;-94
2023/12/09 11:02:22;;;;;;;;;;;;;;;10.39;100.00;97742.66;4887584;29;19918;-93
2023/12/09 11:04:49;;;;;;;;;;;;;;;10.37;100.00;97750.78;4891788;29;19918;-96
2023/12/09 11:07:16;;;;;;;;;;;;;;;10.39;100.00;97755.84;4920098;29;19918;-94
2023/12/09 11:09:42;;;;;;;;;;;;;;;10.29;100.00;97759.75;4902356;29;19915;-94
2023/12/09 11:12:08;;;;;;;;;;;;;;;10.33;100.00;97772.53;4891207;29;19915;-92
2023/12/09 11:14:34;;;;;;;;;;;;;;;10.26;100.00;97751.44;4900983;29;19925;-94
2023/12/09 11:17:01;;;;;;;;;;;;;;;10.27;100.00;97777.63;4901046;29;20350;-94
2023/12/09 11:19:31;;;;;;;;;;;;;;;10.26;100.00;97783.94;4886176;29;19923;-96
2023/12/09 11:21:57;;;;;;;;;;;;;;;10.27;100.00;97793.47;4902817;29;19945;-94
2023/12/09 11:24:28;;;;;;;;;;;;;;;10.29;100.00;97795.91;4891669;29;19958;-94
2023/12/09 11:26:54;;;;;;;;;;;;;;;10.26;100.00;97796.31;4913262;29;20021;-94
2023/12/09 11:29:31;;;;;;;;;;;;;;;10.35;100.00;97802.97;4889155;29;20385;-94
2023/12/09 11:32:27;;;;;;;;;;;;;;;10.41;100.00;97810.09;4904974;29;19961;-95
2023/12/09 11:34:57;;;;;;;;;;;;;;;10.43;100.00;97826.53;4889695;29;19922;-94
2023/12/09 11:37:23;;;;;;;;;;;;;;;10.45;100.00;97844.78;4905675;29;19914;-94
2023/12/09 11:39:49;;;;;;;;;;;;;;;10.47;100.00;97824.31;4890934;29;20385;-93
2023/12/09 11:42:15;;;;;;;;;;;;;;;10.50;100.00;97845.03;4898588;29;19915;-94
2023/12/09 11:44:41;;;;;;;;;;;;;;;10.53;100.00;97844.59;4888335;29;19973;-94
2023/12/09 11:47:07;;;;;;;;;;;;;;;10.57;100.00;97873.25;4903238;29;19950;-95
2023/12/09 11:49:35;;;;;;;;;;;;;;;10.54;100.00;97867.34;4922987;29;20032;-94
2023/12/09 11:52:01;;;;;;;;;;;;;;;10.56;100.00;97884.84;4890532;29;19919;-95
2023/12/09 11:54:26;;;;;;;;;;;;;;;10.50;100.00;97879.34;4889201;29;19918;-96
2023/12/09 11:56:52;;;;;;;;;;;;;;;10.51;100.00;97883.59;4893319;29;19930;-94
2023/12/09 11:59:18;;;;;;;;;;;;;;;10.52;100.00;97893.19;4897670;29;19915;-93
2023/12/09 12:01:44;;;;;;;;;;;;;;;10.62;100.00;97894.56;4893217;29;19946;-96
2023/12/09 12:04:09;;;;;;;;;;;;;;;10.66;100.00;97883.38;4886565;29;19923;-93
2023/12/09 12:06:35;;;;;;;;;;;;;;;10.75;100.00;97891.06;4884302;29;19918;-95
2023/12/09 12:09:03;;;;;;;;;;;;;;;10.85;100.00;97895.91;4885341;29;19922;-93
2023/12/09 12:11:28;;;;;;;;;;;;;;;10.94;100.00;97896.50;4902012;29;19919;-94
2023/12/09 12:13:54;;;;;;;;;;;;;;;10.99;100.00;97897.47;4892877;29;19968;-94
2023/12/09 12:16:21;;;;;;;;;;;;;;;10.97;100.00;97922.50;4898307;29;19915;-94
2023/12/09 12:18:47;;;;;;;;;;;;;;;11.04;100.00;97923.28;4909257;29;19962;-93
2023/12/09 12:21:12;;;;;;;;;;;;;;;11.01;100.00;97929.78;4888136;29;20362;-94
2023/12/09 12:23:39;;;;;;;;;;;;;;;11.03;100.00;97934.88;4901846;29;19963;-90
2023/12/09 12:26:05;;;;;;;;;;;;;;;10.95;100.00;97929.81;4902807;29;19923;-95
2023/12/09 12:28:30;;;;;;;;;;;;;;;10.94;100.00;97936.13;4888191;29;19915;-93
2023/12/09 12:31:03;;;;;;;;;;;;;;;10.92;100.00;97971.50;4888039;29;19922;-95
2023/12/09 12:33:32;;;;;;;;;;;;;;;10.98;100.00;97945.25;4899171;29;19916;-93
2023/12/09 12:35:58;;;;;;;;;;;;;;;10.99;100.00;97958.25;4882905;29;19923;-94
2023/12/09 12:38:27;;;;;;;;;;;;;;;10.95;100.00;97964.16;4904766;29;19915;-96
2023/12/09 12:40:54;;;;;;;;;;;;;;;10.93;100.00;97959.09;4921727;29;19915;-94
2023/12/09 12:43:20;;;;;;;;;;;;;;;10.97;100.00;97951.56;4901063;29;19966;-95
2023/12/09 12:45:55;;;;;;;;;;;;;;;10.94;100.00;97957.28;4917460;29;19971;-96
2023/12/09 12:48:27;;;;;;;;;;;;;;;10.98;100.00;97967.22;4899685;29;19915;-96
2023/12/09 12:51:00;;;;;;;;;;;;;;;10.94;100.00;97967.84;4928897;29;20010;-96
2023/12/09 12:53:27;;;;;;;;;;;;;;;10.87;100.00;97992.47;4897980;29;19916;-96
2023/12/09 12:55:54;;;;;;;;;;;;;;;10.87;100.00;97989.81;4890185;29;19937;-96
2023/12/09 12:58:21;;;;;;;;;;;;;;;10.76;100.00;97999.19;4909310;29;19921;-95
2023/12/09 13:00:51;;;;;;;;;;;;;;;10.72;100.00;98005.91;4903998;29;19915;-95
2023/12/09 13:03:17;;;;;;;;;;;;;;;10.72;100.00;98008.53;4887834;29;19919;-94
2023/12/09 13:05:43;;;;;;;;;;;;;;;10.67;100.00;98019.72;4906154;29;19925;-95
2023/12/09 13:08:09;;;;;;;;;;;;;;;10.65;100.00;98010.38;4904283;29;19922;-96
2023/12/09 13:10:34;;;;;;;;;;;;;;;10.59;100.00;98024.41;4887643;29;19915;-94
2023/12/09 13:13:00;;;;;;;;;;;;;;;10.55;100.00;98031.94;4887302;29;19919;-96
2023/12/09 13:15:26;;;;;;;;;;;;;;;10.51;100.00;98041.28;4888162;29;20358;-96
2023/12/09 13:17:54;;;;;;;;;;;;;;;10.50;100.00;98051.03;4883818;29;19915;-96
2023/12/09 13:20:22;;;;;;;;;;;;;;;10.48;100.00;98046.97;4898795;29;20375;-95
2023/12/09 13:22:48;;;;;;;;;;;;;;;10.50;100.00;98058.13;4900177;29;19922;-94
2023/12/09 13:25:16;;;;;;;;;;;;;;;10.50;100.00;98080.09;4902676;29;19922;-96
2023/12/09 13:27:42;;;;;;;;;;;;;;;10.43;100.00;98080.03;4903493;29;19923;-96
2023/12/09 13:30:08;;;;;;;;;;;;;;;10.25;100.00;98074.53;4887768;29;19915;-95
2023/12/09 13:32:38;;;;;;;;;;;;;;;10.02;100.00;98078.34;4887863;29;19919;-95
2023/12/09 13:35:05;;;;;;;;;;;;;;;9.81;100.00;98080.09;4900653;29;19915;-96
2023/12/09 13:37:34;;;;;;;;;;;;;;;9.67;100.00;98097.72;4884814;29;20391;-96
2023/12/09 13:40:02;;;;;;;;;;;;;;;9.61;100.00;98104.59;4887378;29;19915;-94
2023/12/09 13:42:30;;;;;;;;;;;;;;;9.57;100.00;98100.75;4891262;29;19939;-95
2023/12/09 13:45:09;;;;;;;;;;;;;;;9.52;100.00;98096.03;4887309;29;20284;-93
2023/12/09 13:47:35;;;;;;;;;;;;;;;9.46;100.00;98115.28;4892728;29;19925;-96
2023/12/09 13:50:01;;;;;;;;;;;;;;;9.47;100.00;98129.28;4901124;29;20362;-96
2023/12/09 13:52:30;;;;;;;;;;;;;;;9.46;100.00;98106.56;4896512;29;19958;-95
2023/12/09 13:54:56;;;;;;;;;;;;;;;9.45;100.00;98083.81;4882591;29;19915;-95
2023/12/09 13:57:22;;;;;;;;;;;;;;;9.42;100.00;98111.41;4899201;29;19926;-96
2023/12/09 13:59:48;;;;;;;;;;;;;;;9.40;100.00;98124.78;4883620;29;20005;-95
2023/12/09 14:02:17;;;;;;;;;;;;;;;9.46;100.00;98132.94;4883906;29;19915;-94
2023/12/09 14:04:42;;;;;;;;;;;;;;;9.51;100.00;98109.41;4882567;29;19947;-95
2023/12/09 14:07:08;;;;;;;;;;;;;;;9.50;100.00;98113.88;4884737;29;19919;-92
2023/12/09 14:09:34;;;;;;;;;;;;;;;9.47;100.00;98114.28;4884887;29;20003;-94
2023/12/09 14:11:59;;;;;;;;;;;;;;;9.45;100.00;98131.28;4898417;29;19947;-95
2023/12/09 14:14:27;;;;;;;;;;;;;;;9.45;100.00;98139.19;4882547;29;20323;-96
2023/12/09 14:16:56;;;;;;;;;;;;;;;9.44;100.00;98138.41;4895330;29;19939;-94
2023/12/09 14:19:21;;;;;;;;;;;;;;;9.46;100.00;98136.38;4896377;29;20009;-94
2023/12/09 14:21:47;;;;;;;;;;;;;;;9.48;100.00;98149.34;4886969;29;19926;-89
2023/12/09 14:24:12;;;;;;;;;;;;;;;9.49;100.00;98143.88;4895043;29;19915;-89
2023/12/09 14:26:38;;;;;;;;;;;;;;;9.50;100.00;98152.63;4907369;29;19923;-87
2023/12/09 14:29:04;;;;;;;;;;;;;;;9.42;100.00;98153.59;4887304;29;20015;-89
2023/12/09 14:31:30;;;;;;;;;;;;;;;9.29;100.00;98180.69;4884551;29;19919;-96
2023/12/09 14:33:56;;;;;;;;;;;;;;;9.16;100.00;98187.47;4877702;29;19922;-96
2023/12/09 14:36:21;;;;;;;;;;;;;;;9.04;100.00;98202.19;4885296;29;19967;-95
2023/12/09 14:38:47;;;;;;;;;;;;;;;9.01;100.00;98206.03;4881264;29;19919;-96
2023/12/09 14:41:13;;;;;;;;;;;;;;;9.03;100.00;98198.72;4930449;29;20865;-94
2023/12/09 14:43:39;;;;;;;;;;;;;;;9.06;100.00;98198.34;4887581;29;19993;-95
2023/12/09 14:46:05;;;;;;;;;;;;;;;9.12;100.00;98214.41;4918957;29;20019;-95
2023/12/09 14:48:31;;;;;;;;;;;;;;;9.12;100.00;98215.25;4899141;29;19962;-96
2023/12/09 14:50:57;;;;;;;;;;;;;;;9.13;100.00;98231.84;4888101;29;20381;-95
2023/12/09 14:53:22;;;;;;;;;;;;;;;9.09;100.00;98227.97;4900059;29;19915;-96
2023/12/09 14:55:48;;;;;;;;;;;;;;;9.06;100.00;98245.00;4889455;29;19915;-96
2023/12/09 14:58:14;;;;;;;;;;;;;;;9.04;100.00;98236.44;4890742;29;19963;-95
2023/12/09 15:00:40;;;;;;;;;;;;;;;9.05;100.00;98232.78;4902947;29;20026;-90
2023/12/09 15:03:05;;;;;;;;;;;;;;;9.05;100.00;98241.53;4910497;29;19921;-90
2023/12/09 15:05:31;;;;;;;;;;;;;;;9.08;100.00;98242.16;4882242;29;19926;-94
2023/12/09 15:07:57;;;;;;;;;;;;;;;9.10;100.00;98251.50;4887831;29;19943;-96
2023/12/09 15:10:23;;;;;;;;;;;;;;;9.12;100.00;98264.50;4882924;29;19967;-89
2023/12/09 15:12:48;;;;;;;;;;;;;;;9.15;100.00;98282.56;4895370;29;19919;-88
2023/12/09 15:15:16;;;;;;;;;;;;;;;9.14;100.00;98289.63;4883395;29;19923;-95
2023/12/09 15:17:42;;;;;;;;;;;;;;;9.17;100.00;98312.97;4888890;29;19937;-95
2023/12/09 15:20:10;;;;;;;;;;;;;;;9.14;100.00;98288.84;4902984;29;20752;-96
2023/12/09 15:22:37;;;;;;;;;;;;;;;9.13;100.00;98309.09;4898347;29;19938;-93
2023/12/09 15:25:03;;;;;;;;;;;;;;;9.09;100.00;98313.13;4897893;29;20002;-96
2023/12/09 15:27:30;;;;;;;;;;;;;;;9.03;100.00;98329.69;4897831;29;19919;-89
2023/12/09 15:29:58;;;;;;;;;;;;;;;8.98;100.00;98338.13;4872909;29;19915;-90
2023/12/09 15:32:26;;;;;;;;;;;;;;;9.00;100.00;98335.34;4882015;29;19922;-91
2023/12/09 15:34:52;;;;;;;;;;;;;;;9.02;100.00;98343.84;4914584;29;20288;-88
2023/12/09 15:37:19;;;;;;;;;;;;;;;9.04;100.00;98362.94;4916139;29;19919;-96
2023/12/09 15:40:08;;;;;;;;;;;;;;;9.03;100.00;98348.13;4909197;29;19911;-96
2023/12/09 15:42:43;;;;;;;;;;;;;;;9.07;100.00;98359.94;4939715;29;19934;-96
2023/12/09 15:45:15;;;;;;;;;;;;;;;9.08;100.00;98361.56;4924653;29;19931;-93
2023/12/09 15:47:41;;;;;;;;;;;;;;;9.12;100.00;98376.00;4883901;29;20326;-95
2023/12/09 15:50:08;;;;;;;;;;;;;;;9.12;100.00;98380.44;4881461;29;19949;-96
2023/12/09 15:52:42;;;;;;;;;;;;;;;9.16;100.00;98397.50;4909046;29;19919;-96
2023/12/09 15:55:08;;;;;;;;;;;;;;;9.13;100.00;98406.63;4912374;29;19926;-95
2023/12/09 15:57:34;;;;;;;;;;;;;;;9.12;100.00;98425.25;4897784;29;19922;-95
2023/12/09 16:00:00;;;;;;;;;;;;;;;9.14;100.00;98428.53;4882406;29;20374;-95
2023/12/09 16:02:26;;;;;;;;;;;;;;;9.14;100.00;98447.78;4904361;29;19919;-95
2023/12/09 16:04:52;;;;;;;;;;;;;;;9.08;100.00;98461.69;4897372;29;19942;-95
2023/12/09 16:07:20;;;;;;;;;;;;;;;9.07;100.00;98457.44;4881260;29;19919;-90
2023/12/09 16:09:45;;;;;;;;;;;;;;;9.04;100.00;98474.44;4895501;29;20445;-89
2023/12/09 16:12:11;;;;;;;;;;;;;;;9.06;100.00;98471.63;4900670;29;20102;-96
2023/12/09 16:14:37;;;;;;;;;;;;;;;9.04;100.00;98478.88;4899287;29;19919;-95
2023/12/09 16:17:03;;;;;;;;;;;;;;;9.03;100.00;98493.88;4886241;29;20263;-90
2023/12/09 16:19:28;;;;;;;;;;;;;;;9.00;100.00;98499.50;4898003;29;20297;-90
2023/12/09 16:21:54;;;;;;;;;;;;;;;8.99;100.00;98495.25;4881523;29;19923;-90
2023/12/09 16:24:20;;;;;;;;;;;;;;;8.96;100.00;98502.69;4882236;29;19998;-90
2023/12/09 16:26:45;;;;;;;;;;;;;;;8.93;100.00;98520.50;4897533;29;19950;-96
2023/12/09 16:29:11;;;;;;;;;;;;;;;8.95;100.00;98530.06;4899619;29;20629;-96
2023/12/09 16:31:38;;;;;;;;;;;;;;;8.94;100.00;98521.31;4880696;29;19919;-89
2023/12/09 16:34:04;;;;;;;;;;;;;;;8.92;100.00;98529.41;4881426;29;19929;-88
2023/12/09 16:36:31;;;;;;;;;;;;;;;8.89;100.00;98513.13;4917618;29;20005;-95
2023/12/09 16:38:56;;;;;;;;;;;;;;;8.87;100.00;98520.41;4903747;29;19915;-96
2023/12/09 16:41:22;;;;;;;;;;;;;;;8.84;100.00;98531.31;4883494;29;19916;-96
2023/12/09 16:43:48;;;;;;;;;;;;;;;8.80;100.00;98536.94;4915267;29;20180;-96
2023/12/09 16:46:14;;;;;;;;;;;;;;;8.78;100.00;98544.22;4898835;29;20009;-90
2023/12/09 16:48:40;;;;;;;;;;;;;;;8.77;100.00;98553.13;4878144;29;19934;-91
2023/12/09 16:51:05;;;;;;;;;;;;;;;8.74;100.00;98566.66;4892052;29;20010;-87
2023/12/09 16:53:31;;;;;;;;;;;;;;;8.73;100.00;98564.19;4874266;29;19935;-89
2023/12/09 16:55:57;;;;;;;;;;;;;;;8.68;100.00;98569.97;4885325;29;19966;-95
2023/12/09 16:58:22;;;;;;;;;;;;;;;8.67;100.00;98578.88;4900627;29;19967;-96
2023/12/09 17:00:48;;;;;;;;;;;;;;;8.66;100.00;98580.69;4882626;29;19951;-91
2023/12/09 17:03:14;;;;;;;;;;;;;;;8.66;100.00;98577.25;4894076;29;19915;-91
2023/12/09 17:05:40;;;;;;;;;;;;;;;8.65;100.00;98589.59;4897522;29;19922;-96
2023/12/09 17:08:06;;;;;;;;;;;;;;;8.65;100.00;98584.31;4884902;29;19914;-95
2023/12/09 17:10:32;;;;;;;;;;;;;;;8.67;100.00;98582.34;4902375;29;19970;-96
2023/12/09 17:12:58;;;;;;;;;;;;;;;8.69;100.00;98579.53;4886193;29;20322;-94
2023/12/09 17:15:24;;;;;;;;;;;;;;;8.69;100.00;98588.22;4890297;29;20426;-96
2023/12/09 17:17:50;;;;;;;;;;;;;;;8.68;100.00;98585.78;4885946;29;19919;-96
2023/12/09 17:20:15;;;;;;;;;;;;;;;8.64;100.00;98581.88;4885234;29;19927;-95
2023/12/09 17:22:41;;;;;;;;;;;;;;;8.63;100.00;98593.41;4885717;29;20751;-96
2023/12/09 17:25:07;;;;;;;;;;;;;;;8.65;100.00;98594.03;4891646;29;19919;-94
2023/12/09 17:27:33;;;;;;;;;;;;;;;8.63;100.00;98607.38;4886029;29;19919;-96
2023/12/09 17:29:59;;;;;;;;;;;;;;;8.60;100.00;98620.91;4900143;29;19915;-95
2023/12/09 17:32:24;;;;;;;;;;;;;;;8.59;100.00;98616.63;4914092;29;20378;-90
2023/12/09 17:34:50;;;;;;;;;;;;;;;8.52;100.00;98632.28;4881182;29;19922;-90
2023/12/09 17:37:16;;;;;;;;;;;;;;;8.52;100.00;98628.84;4883681;29;19915;-89
2023/12/09 17:39:41;;;;;;;;;;;;;;;8.51;100.00;98637.72;4888567;29;19926;-89
2023/12/09 17:42:07;;;;;;;;;;;;;;;8.48;100.00;98656.50;4897633;29;19919;-94
2023/12/09 17:44:36;;;;;;;;;;;;;;;8.44;100.00;98659.50;4884227;29;19979;-96